Terminal Aerodrome Forecast
Issued by NWS Corpus Christi, TX

Home | Current Version | Previous Version | Text Only | Print | Product List | Glossary On
Versions: 1 2 3 4 5 6 7 8 9 10 11 12 13 14 15
075
FTUS44 KCRP 061720
TAFVCT
TAF
KVCT 061720Z 0618/0718 33022G32KT P6SM SKC
     FM062300 34010KT P6SM SKC
     FM070400 02004KT P6SM SKC
     FM071500 10006KT P6SM FEW250=

USA.gov is the U.S. government's official web portal to all federal, state and local government web resources and services.